Time;durP1;ratioP1;P1;durP2;ratioP2;P2;SDS_P1;SDS_P2;PMS_P1;PMS_P2;Temp;Humidity;BMP_temperature;BMP_pressure;BME280_temperature;BME280_humidity;BME280_pressure;Samples;Min_cycle;Max_cycle;Signal;HPM_P1;HPM_P2
2023/05/04 00:00:26;;;;;;;4.00;1.90;;;;;;;21.49;46.24;99133.22;5055481;28;20401;-78
2023/05/04 00:02:51;;;;;;;4.57;1.90;;;;;;;21.49;46.44;99115.47;5054927;28;20053;-79
2023/05/04 00:05:17;;;;;;;3.20;1.65;;;;;;;21.46;46.38;99113.88;5062645;28;20040;-79
2023/05/04 00:07:42;;;;;;;4.20;1.60;;;;;;;21.44;46.50;99118.47;5074418;28;20032;-78
2023/05/04 00:10:08;;;;;;;4.07;1.75;;;;;;;21.45;46.57;99114.84;5074574;28;20028;-78
2023/05/04 00:12:34;;;;;;;3.67;1.85;;;;;;;21.43;46.59;99105.28;5074357;28;20028;-78
2023/05/04 00:14:59;;;;;;;3.95;1.90;;;;;;;21.44;46.87;99091.06;5074792;28;20024;-79
2023/05/04 00:17:25;;;;;;;3.38;1.90;;;;;;;21.42;46.58;99080.56;5074063;28;20035;-79
2023/05/04 00:19:50;;;;;;;3.92;1.92;;;;;;;21.40;46.72;99103.69;5073947;28;20449;-79
2023/05/04 00:22:15;;;;;;;3.20;1.75;;;;;;;21.42;46.87;99100.94;5073696;28;20020;-78
2023/05/04 00:24:42;;;;;;;3.17;1.55;;;;;;;21.41;46.80;99109.88;5073975;28;20476;-78
2023/05/04 00:27:09;;;;;;;3.25;1.77;;;;;;;21.40;46.94;99103.69;5073788;28;20029;-78
2023/05/04 00:29:34;;;;;;;2.38;1.60;;;;;;;21.40;47.02;99093.06;5073901;28;20031;-78
2023/05/04 00:32:00;;;;;;;3.55;1.88;;;;;;;21.39;47.10;99090.53;5073809;28;20020;-78
2023/05/04 00:34:26;;;;;;;3.00;1.70;;;;;;;21.39;47.19;99086.06;5071087;28;20073;-78
2023/05/04 00:36:51;;;;;;;3.42;1.63;;;;;;;21.37;47.23;99088.00;5053135;28;20102;-78
2023/05/04 00:39:17;;;;;;;4.40;1.90;;;;;;;21.32;47.21;99080.31;5053507;28;20511;-78
2023/05/04 00:41:43;;;;;;;3.08;1.55;;;;;;;21.33;47.49;99075.88;5053400;28;20454;-78
2023/05/04 00:44:08;;;;;;;3.40;1.65;;;;;;;21.31;47.70;99068.03;5053311;28;20485;-79
2023/05/04 00:46:35;;;;;;;4.45;2.13;;;;;;;21.30;47.65;99076.94;5072487;28;20036;-78
2023/05/04 00:49:01;;;;;;;3.38;1.70;;;;;;;21.33;47.66;99075.88;5073284;28;20035;-79
2023/05/04 00:51:27;;;;;;;2.15;1.50;;;;;;;21.31;47.85;99069.84;5072736;28;20052;-79
2023/05/04 00:53:54;;;;;;;3.55;1.95;;;;;;;21.32;47.85;99079.50;5055249;28;20052;-78
2023/05/04 00:56:25;;;;;;;2.20;1.55;;;;;;;21.28;47.89;99078.00;5072877;28;20051;-78
2023/05/04 00:58:54;;;;;;;3.22;1.95;;;;;;;21.29;47.99;99085.00;5072084;28;20021;-78
2023/05/04 01:01:23;;;;;;;3.75;2.10;;;;;;;21.29;47.99;99082.34;5072586;28;20024;-78
2023/05/04 01:03:50;;;;;;;2.95;2.00;;;;;;;21.27;48.00;99082.47;5072630;28;20028;-78
2023/05/04 01:06:25;;;;;;;4.45;2.05;;;;;;;21.27;48.33;99076.31;5072513;28;20032;-78
2023/05/04 01:09:06;;;;;;;4.93;2.30;;;;;;;21.28;48.30;99078.00;5072720;28;20525;-79
2023/05/04 01:11:53;;;;;;;3.13;1.90;;;;;;;21.26;48.49;99069.31;5072298;28;20028;-78
2023/05/04 01:14:20;;;;;;;3.83;1.98;;;;;;;21.25;48.44;99072.91;5072577;28;20028;-78
2023/05/04 01:16:46;;;;;;;3.45;2.03;;;;;;;21.24;48.69;99071.19;5072570;28;20086;-79
2023/05/04 01:19:12;;;;;;;4.97;2.10;;;;;;;21.22;48.43;99079.28;5072077;28;20040;-78
2023/05/04 01:21:37;;;;;;;4.20;1.90;;;;;;;21.23;48.52;99064.19;5072571;28;20056;-79
2023/05/04 01:24:04;;;;;;;3.13;1.85;;;;;;;21.20;48.84;99054.63;5072474;28;20028;-78
2023/05/04 01:26:37;;;;;;;3.05;2.03;;;;;;;21.21;48.83;99066.94;5072284;28;20066;-78
2023/05/04 01:29:24;;;;;;;3.78;2.00;;;;;;;21.21;48.87;99060.81;5072278;28;20435;-78
2023/05/04 01:31:49;;;;;;;;;;;;;;;21.21;48.84;99066.09;5072888;28;20028;-78
2023/05/04 01:34:15;;;;;;;3.70;2.00;;;;;;;21.23;48.98;99064.19;5072192;28;19916;-79
2023/05/04 01:36:43;;;;;;;3.75;2.03;;;;;;;21.19;49.07;99075.03;5072265;28;20031;-78
2023/05/04 01:39:08;;;;;;;4.00;2.03;;;;;;;21.16;49.00;99069.91;5072466;28;20020;-78
2023/05/04 01:41:35;;;;;;;3.03;1.73;;;;;;;21.16;49.09;99054.00;5072469;28;20077;-78
2023/05/04 01:44:01;;;;;;;3.30;2.00;;;;;;;21.18;49.25;99057.41;5072318;28;20025;-78
2023/05/04 01:46:27;;;;;;;4.53;2.17;;;;;;;21.14;49.40;99061.22;5072113;28;20040;-78
2023/05/04 01:48:52;;;;;;;4.40;1.85;;;;;;;21.13;49.16;99064.84;5071904;28;20392;-79
2023/05/04 01:51:17;;;;;;;4.28;2.05;;;;;;;21.13;49.58;99070.13;5072161;28;20027;-78
2023/05/04 01:53:43;;;;;;;4.65;2.08;;;;;;;21.14;49.46;99061.22;5071883;28;20071;-78
2023/05/04 01:56:09;;;;;;;3.05;1.90;;;;;;;21.16;49.51;99059.31;5065911;28;20027;-78
2023/05/04 01:58:34;;;;;;;3.47;2.33;;;;;;;21.17;49.39;99050.38;5052663;28;20025;-78
2023/05/04 02:01:00;;;;;;;4.40;2.08;;;;;;;21.15;49.48;99057.59;5053938;28;20021;-79
2023/05/04 02:03:25;;;;;;;3.42;1.90;;;;;;;21.15;49.50;99060.25;5053410;28;20033;-78
2023/05/04 02:05:51;;;;;;;4.00;2.05;;;;;;;21.16;49.55;99066.44;5064007;28;20047;-78
2023/05/04 02:08:17;;;;;;;4.30;1.83;;;;;;;21.13;49.54;99051.56;5073839;28;20055;-79
2023/05/04 02:10:42;;;;;;;4.60;2.28;;;;;;;21.13;49.91;99064.84;5076083;28;20024;-78
2023/05/04 02:13:08;;;;;;;3.05;2.22;;;;;;;21.11;49.77;99056.13;5077396;28;20029;-79
2023/05/04 02:15:33;;;;;;;4.40;2.15;;;;;;;21.11;49.77;99061.41;5077066;28;20468;-78
2023/05/04 02:17:58;;;;;;;5.68;2.20;;;;;;;21.12;49.80;99068.41;5058489;28;20059;-79
2023/05/04 02:20:24;;;;;;;3.00;2.08;;;;;;;21.10;49.80;99074.81;5076710;28;20044;-78
2023/05/04 02:22:49;;;;;;;3.97;2.20;;;;;;;21.11;49.92;99064.06;5076626;28;20092;-79
2023/05/04 02:25:15;;;;;;;3.70;2.03;;;;;;;21.09;49.96;99067.78;5076080;28;20077;-78
2023/05/04 02:27:41;;;;;;;4.68;2.10;;;;;;;21.09;50.17;99063.34;5076672;28;20021;-78
2023/05/04 02:30:08;;;;;;;3.78;2.10;;;;;;;21.06;50.18;99067.03;5076198;28;20035;-78
2023/05/04 02:32:33;;;;;;;3.80;2.10;;;;;;;21.08;50.05;99074.91;5075996;28;20054;-78
2023/05/04 02:34:58;;;;;;;3.92;2.35;;;;;;;21.08;50.07;99071.38;5076286;28;20028;-79
2023/05/04 02:37:24;;;;;;;2.63;1.63;;;;;;;21.06;50.13;99074.13;5076000;28;20108;-79
2023/05/04 02:39:49;;;;;;;3.90;2.08;;;;;;;21.05;50.15;99070.66;5076233;28;20036;-78
2023/05/04 02:42:16;;;;;;;3.92;2.50;;;;;;;21.06;50.31;99082.09;5072493;28;20025;-78
2023/05/04 02:44:41;;;;;;;4.95;2.45;;;;;;;21.04;50.28;99078.72;5056105;28;20396;-78
2023/05/04 02:47:06;;;;;;;6.22;2.78;;;;;;;21.06;50.29;99084.75;5070161;28;20028;-78
2023/05/04 02:49:32;;;;;;;4.07;2.15;;;;;;;21.06;50.24;99082.09;5075502;28;20027;-78
2023/05/04 02:51:57;;;;;;;3.17;2.28;;;;;;;21.00;50.35;99090.47;5075486;28;20032;-78
2023/05/04 02:54:22;;;;;;;3.47;2.22;;;;;;;21.03;50.32;99101.72;5075594;28;20501;-78
2023/05/04 02:56:48;;;;;;;4.00;2.30;;;;;;;21.00;50.55;99096.63;5075043;28;20035;-79
2023/05/04 02:59:13;;;;;;;4.60;2.42;;;;;;;21.00;50.26;99082.50;5075372;28;20020;-78
2023/05/04 03:01:39;;;;;;;4.13;2.42;;;;;;;20.97;50.45;99096.00;5075040;28;20035;-79
2023/05/04 03:04:06;;;;;;;5.35;2.45;;;;;;;20.97;50.55;99101.31;5075536;28;20054;-79
2023/05/04 03:06:31;;;;;;;3.63;2.25;;;;;;;20.97;50.45;99107.44;5056997;28;20036;-78
2023/05/04 03:08:56;;;;;;;5.88;2.55;;;;;;;20.95;50.68;99130.56;5075199;28;20052;-79
2023/05/04 03:11:22;;;;;;;3.75;2.00;;;;;;;20.96;50.44;99165.91;5074656;28;20130;-78
2023/05/04 03:13:47;;;;;;;3.88;2.40;;;;;;;20.96;50.61;99201.22;5074923;28;20020;-78
2023/05/04 03:16:13;;;;;;;4.25;2.50;;;;;;;21.01;50.59;99240.75;5074034;28;20029;-79
2023/05/04 03:18:38;;;;;;;4.43;2.75;;;;;;;21.03;50.34;99260.88;5074467;28;20384;-78
2023/05/04 03:21:04;;;;;;;3.90;2.20;;;;;;;21.07;50.44;99288.09;5073978;28;20043;-79
2023/05/04 03:23:29;;;;;;;3.35;2.15;;;;;;;21.03;50.52;99292.72;5073991;28;20016;-79
2023/05/04 03:25:55;;;;;;;3.97;2.20;;;;;;;21.05;50.65;99305.88;5074373;28;20032;-79
2023/05/04 03:28:20;;;;;;;4.32;2.35;;;;;;;21.06;50.48;99313.75;5074585;28;20369;-78
2023/05/04 03:30:46;;;;;;;5.65;2.55;;;;;;;21.08;50.44;99316.31;5074045;28;20481;-78
2023/05/04 03:33:12;;;;;;;4.90;2.33;;;;;;;21.07;50.59;99317.28;5056185;28;20105;-78
2023/05/04 03:35:37;;;;;;;5.70;2.35;;;;;;;21.10;50.62;99327.66;5074283;28;20016;-79
2023/05/04 03:38:03;;;;;;;3.63;2.25;;;;;;;21.10;50.59;99335.63;5074267;28;20025;-79
2023/05/04 03:40:28;;;;;;;4.93;2.70;;;;;;;21.14;50.76;99342.47;5074202;28;20035;-79
2023/05/04 03:42:54;;;;;;;5.47;2.30;;;;;;;21.15;50.49;99354.75;5073931;28;20063;-78
2023/05/04 03:45:19;;;;;;;4.68;2.50;;;;;;;21.14;50.47;99358.38;5073561;28;20017;-78
2023/05/04 03:47:45;;;;;;;4.30;2.58;;;;;;;21.11;50.82;99363.03;5074122;28;20482;-78
2023/05/04 03:50:11;;;;;;;4.57;2.53;;;;;;;21.09;50.62;99371.06;5074214;28;20054;-78
2023/05/04 03:52:36;;;;;;;5.82;2.53;;;;;;;21.12;50.60;99375.34;5073720;28;20029;-79
2023/05/04 03:55:02;;;;;;;3.65;2.20;;;;;;;21.12;50.67;99376.16;5073970;28;20031;-78
2023/05/04 03:57:27;;;;;;;4.50;2.50;;;;;;;21.15;50.61;99381.31;5056786;28;20416;-78
2023/05/04 03:59:53;;;;;;;4.18;2.70;;;;;;;21.16;50.57;99387.47;5053605;28;20108;-78
2023/05/04 04:02:18;;;;;;;4.80;2.72;;;;;;;21.16;50.46;99390.13;5053974;28;20033;-78
2023/05/04 04:04:44;;;;;;;5.25;2.65;;;;;;;21.19;50.45;99393.44;5053860;28;20017;-79
2023/05/04 04:07:09;;;;;;;4.40;2.33;;;;;;;21.18;50.51;99391.72;5072823;28;20523;-78
2023/05/04 04:09:34;;;;;;;5.53;2.53;;;;;;;21.19;50.58;99393.44;5074099;28;20062;-78
2023/05/04 04:12:01;;;;;;;3.97;2.30;;;;;;;21.20;50.58;99399.56;5074199;28;20480;-78
2023/05/04 04:14:26;;;;;;;5.90;2.70;;;;;;;21.19;50.47;99409.34;5073528;28;20095;-78
2023/05/04 04:16:51;;;;;;;4.88;2.67;;;;;;;21.21;50.45;99408.41;5073693;28;20480;-79
2023/05/04 04:19:17;;;;;;;4.85;2.53;;;;;;;21.23;50.67;99415.31;5073682;28;20049;-78
2023/05/04 04:21:42;;;;;;;4.85;2.55;;;;;;;21.25;50.88;99412.56;5073832;28;20027;-78
2023/05/04 04:24:08;;;;;;;4.28;2.47;;;;;;;21.25;50.70;99425.84;5073709;28;20052;-78
2023/05/04 04:26:34;;;;;;;4.28;2.40;;;;;;;21.28;50.66;99431.81;5073113;28;20404;-78
2023/05/04 04:28:59;;;;;;;4.43;2.60;;;;;;;21.29;50.53;99432.63;5073133;28;20016;-78
2023/05/04 04:31:25;;;;;;;3.97;2.67;;;;;;;21.29;50.42;99441.47;5073199;28;20106;-77
2023/05/04 04:33:50;;;;;;;4.97;2.50;;;;;;;21.30;50.62;99444.94;5073302;28;20036;-78
2023/05/04 04:36:17;;;;;;;5.65;2.70;;;;;;;21.29;50.49;99445.91;5073111;28;20063;-78
2023/05/04 04:38:43;;;;;;;4.40;2.67;;;;;;;21.27;50.55;99438.06;5073233;28;20025;-78
2023/05/04 04:41:08;;;;;;;5.45;2.67;;;;;;;21.30;50.47;99440.50;5073254;28;20028;-79
2023/05/04 04:43:34;;;;;;;6.07;2.30;;;;;;;21.30;50.69;99447.59;5072864;28;20043;-78
2023/05/04 04:46:01;;;;;;;5.00;2.65;;;;;;;21.30;50.39;99447.59;5069716;28;20028;-78
2023/05/04 04:48:26;;;;;;;6.05;3.00;;;;;;;21.27;50.74;99445.16;5072890;28;20510;-79
2023/05/04 04:50:52;;;;;;;4.53;2.80;;;;;;;21.29;50.73;99459.19;5072810;28;20099;-79
2023/05/04 04:53:17;;;;;;;4.40;2.80;;;;;;;21.29;50.71;99461.84;5054973;28;20103;-78
2023/05/04 04:55:43;;;;;;;4.28;2.97;;;;;;;21.29;50.59;99461.84;5070227;28;20020;-78
2023/05/04 04:58:08;;;;;;;4.82;3.03;;;;;;;21.30;50.60;99468.84;5052468;28;20392;-78
2023/05/04 05:00:34;;;;;;;4.78;2.90;;;;;;;21.29;50.72;99467.13;5034787;28;20021;-79
2023/05/04 05:03:01;;;;;;;4.68;2.70;;;;;;;21.27;50.79;99477.00;5052842;28;20033;-78
2023/05/04 05:05:27;;;;;;;4.10;2.55;;;;;;;21.29;50.71;99475.09;5056559;28;20037;-78
2023/05/04 05:07:53;;;;;;;5.75;3.00;;;;;;;21.27;50.74;99482.31;5072359;28;20059;-78
2023/05/04 05:10:19;;;;;;;6.05;2.92;;;;;;;21.27;50.72;99484.97;5054689;28;20523;-79
2023/05/04 05:12:46;;;;;;;5.18;2.90;;;;;;;21.25;50.96;99486.88;5071955;28;20021;-78
2023/05/04 05:15:11;;;;;;;4.70;2.75;;;;;;;21.26;50.74;99488.56;5072009;28;20107;-78
2023/05/04 05:17:38;;;;;;;4.45;2.80;;;;;;;21.27;50.81;99492.94;5072395;28;20108;-79
2023/05/04 05:20:10;;;;;;;5.90;2.70;;;;;;;21.24;51.01;99493.09;5072284;28;20131;-78
2023/05/04 05:22:39;;;;;;;5.65;2.70;;;;;;;21.27;50.78;99495.59;5072098;28;20032;-79
2023/05/04 05:25:05;;;;;;;6.03;2.90;;;;;;;21.25;50.96;99502.81;5072239;28;20020;-78
2023/05/04 05:27:33;;;;;;;6.07;3.00;;;;;;;21.23;50.95;99494.06;5071670;28;20033;-78
2023/05/04 05:29:59;;;;;;;4.85;2.88;;;;;;;21.24;50.74;99495.75;5072332;28;20024;-78
2023/05/04 05:32:24;;;;;;;6.82;2.90;;;;;;;21.21;50.82;99509.22;5072083;28;20033;-79
2023/05/04 05:34:50;;;;;;;3.92;2.97;;;;;;;21.25;51.00;99508.09;5072282;28;20081;-79
2023/05/04 05:37:15;;;;;;;5.45;2.78;;;;;;;21.22;51.08;99503.84;5072075;28;20024;-78
2023/05/04 05:39:41;;;;;;;5.18;2.90;;;;;;;21.24;50.83;99517.00;5072431;28;20108;-79
2023/05/04 05:42:07;;;;;;;4.50;2.83;;;;;;;21.22;50.83;99518.91;5071686;28;20032;-78
2023/05/04 05:44:36;;;;;;;6.68;3.10;;;;;;;21.19;50.91;99520.81;5071697;28;20043;-79
2023/05/04 05:47:02;;;;;;;5.07;2.90;;;;;;;21.19;51.15;99520.81;5071832;28;20033;-79
2023/05/04 05:49:27;;;;;;;4.32;2.55;;;;;;;21.21;51.17;99522.50;5072016;28;20035;-78
2023/05/04 05:51:53;;;;;;;4.22;2.70;;;;;;;21.25;50.96;99529.34;5071953;28;20028;-78
2023/05/04 05:54:21;;;;;;;4.43;2.40;;;;;;;21.24;51.03;99532.91;5071902;28;20033;-78
2023/05/04 05:56:47;;;;;;;5.22;3.25;;;;;;;21.22;50.92;99535.69;5060185;28;20039;-79
2023/05/04 05:59:13;;;;;;;4.38;2.90;;;;;;;21.19;51.21;99544.69;5052133;28;20743;-78
2023/05/04 06:01:39;;;;;;;5.65;3.03;;;;;;;21.24;50.81;99539.09;5052184;28;20028;-79
2023/05/04 06:04:04;;;;;;;6.45;3.22;;;;;;;21.24;50.89;99543.53;5060918;28;20036;-78
2023/05/04 06:06:30;;;;;;;4.45;2.92;;;;;;;21.23;50.93;99537.38;5071610;28;20504;-79
2023/05/04 06:08:55;;;;;;;5.80;3.08;;;;;;;21.23;50.80;99549.78;5071895;28;20107;-79
2023/05/04 06:11:20;;;;;;;5.18;3.00;;;;;;;21.22;51.04;99550.75;5071531;28;20033;-78
2023/05/04 06:13:46;;;;;;;6.68;3.05;;;;;;;21.19;51.06;99546.47;5053794;28;20024;-78
2023/05/04 06:16:11;;;;;;;6.10;3.10;;;;;;;21.18;51.07;99550.06;5071856;28;20021;-79
2023/05/04 06:18:37;;;;;;;4.75;2.72;;;;;;;21.18;51.16;99564.22;5071867;28;20020;-79
2023/05/04 06:21:02;;;;;;;5.60;3.05;;;;;;;21.17;51.16;99565.13;5072136;28;20524;-78
2023/05/04 06:23:29;;;;;;;6.32;3.47;;;;;;;21.15;51.16;99567.03;5072055;28;20028;-78
2023/05/04 06:25:55;;;;;;;5.20;3.60;;;;;;;21.16;51.28;99574.03;5071661;28;20028;-79
2023/05/04 06:28:20;;;;;;;5.97;3.50;;;;;;;21.18;51.03;99574.81;5071838;28;20102;-78
2023/05/04 06:30:46;;;;;;;6.25;3.08;;;;;;;21.18;51.14;99572.16;5072006;28;20035;-79
2023/05/04 06:33:11;;;;;;;4.85;3.10;;;;;;;21.17;51.11;99570.44;5053731;28;20126;-78
2023/05/04 06:35:36;;;;;;;5.43;3.22;;;;;;;21.18;51.01;99573.97;5053887;28;20123;-79
2023/05/04 06:38:02;;;;;;;5.95;2.92;;;;;;;21.16;51.05;99574.03;5071595;28;20024;-78
2023/05/04 06:40:27;;;;;;;5.70;2.90;;;;;;;21.21;51.11;99567.63;5071359;28;20448;-78
2023/05/04 06:42:53;;;;;;;4.97;3.22;;;;;;;21.22;50.84;99566.66;5071652;28;20021;-78
2023/05/04 06:45:19;;;;;;;6.88;3.10;;;;;;;21.21;51.01;99575.56;5053595;28;20020;-79
2023/05/04 06:47:44;;;;;;;5.25;2.70;;;;;;;21.23;51.01;99568.38;5071652;28;20392;-79
2023/05/04 06:50:10;;;;;;;7.47;3.35;;;;;;;21.17;50.97;99565.13;5071509;28;20477;-79
2023/05/04 06:52:41;;;;;;;6.43;3.20;;;;;;;21.15;51.20;99561.72;5071471;28;20555;-80
2023/05/04 06:55:07;;;;;;;5.15;3.25;;;;;;;21.14;51.16;99570.63;5071487;28;20070;-78
2023/05/04 06:57:32;;;;;;;6.32;3.15;;;;;;;21.19;50.98;99565.03;5073318;28;20099;-78
2023/05/04 06:59:58;;;;;;;4.75;3.00;;;;;;;21.17;50.90;99570.44;5075060;28;20032;-78
2023/05/04 07:02:23;;;;;;;7.65;3.67;;;;;;;21.21;50.95;99576.41;5075261;28;20039;-79
2023/05/04 07:04:49;;;;;;;6.97;3.03;;;;;;;21.21;51.01;99575.56;5074925;28;20082;-78
2023/05/04 07:07:14;;;;;;;6.63;3.42;;;;;;;21.21;51.08;99573.75;5074443;28;20490;-79
2023/05/04 07:09:41;;;;;;;8.35;3.30;;;;;;;21.21;50.95;99572.91;5074839;28;20024;-78
2023/05/04 07:12:06;;;;;;;6.85;3.40;;;;;;;21.22;51.08;99571.97;5056864;28;20025;-78
2023/05/04 07:14:32;;;;;;;6.65;3.65;;;;;;;21.21;50.86;99575.56;5074990;28;20032;-78
2023/05/04 07:16:59;;;;;;;5.10;3.20;;;;;;;21.16;51.12;99583.81;5074749;28;20506;-79
2023/05/04 07:19:24;;;;;;;6.47;3.65;;;;;;;21.19;51.02;99576.53;5074467;28;20055;-78
2023/05/04 07:21:50;;;;;;;7.10;3.20;;;;;;;21.14;51.14;99580.38;5074471;28;20392;-78
2023/05/04 07:24:15;;;;;;;6.65;3.20;;;;;;;21.12;50.97;99579.63;5074668;28;20104;-78
2023/05/04 07:26:41;;;;;;;5.55;3.38;;;;;;;21.11;51.08;99576.13;5074324;28;20032;-79
2023/05/04 07:29:06;;;;;;;6.15;3.20;;;;;;;21.11;51.07;99581.41;5074465;28;20029;-78
2023/05/04 07:31:32;;;;;;;6.13;3.03;;;;;;;21.10;51.07;99592.97;5074497;28;20116;-78
2023/05/04 07:33:58;;;;;;;5.93;3.38;;;;;;;21.13;51.24;99582.19;5074422;28;20062;-78
2023/05/04 07:36:25;;;;;;;6.85;3.15;;;;;;;21.13;51.06;99581.34;5073978;28;20021;-78
2023/05/04 07:38:50;;;;;;;6.57;3.50;;;;;;;21.17;50.91;99578.41;5074289;28;20511;-78
2023/05/04 07:41:16;;;;;;;5.85;3.35;;;;;;;21.18;51.06;99571.31;5056237;28;20044;-78
2023/05/04 07:43:41;;;;;;;6.55;3.65;;;;;;;21.22;50.89;99571.97;5074193;28;20028;-77
2023/05/04 07:46:07;;;;;;;5.65;3.30;;;;;;;21.22;50.91;99577.28;5073855;28;20051;-78
2023/05/04 07:48:33;;;;;;;5.18;3.33;;;;;;;21.25;50.69;99577.09;5056257;28;20024;-77
2023/05/04 07:50:58;;;;;;;5.35;3.28;;;;;;;21.28;50.67;99571.59;5074121;28;20035;-77
2023/05/04 07:53:25;;;;;;;4.68;3.10;;;;;;;21.27;50.61;99570.75;5074221;28;20029;-78
2023/05/04 07:55:52;;;;;;;4.78;2.67;;;;;;;21.30;50.63;99561.72;5069343;28;20032;-78
2023/05/04 07:58:18;;;;;;;5.10;2.75;;;;;;;21.30;50.75;99569.69;5061207;28;20033;-76
2023/05/04 08:00:44;;;;;;;5.57;3.50;;;;;;;21.26;50.81;99573.50;5062301;28;20499;-76
2023/05/04 08:03:09;;;;;;;6.78;3.42;;;;;;;21.28;50.98;99572.47;5055218;28;20033;-77
2023/05/04 08:05:35;;;;;;;6.60;3.35;;;;;;;21.29;50.73;99578.59;5061053;28;20033;-77
2023/05/04 08:08:00;;;;;;;6.25;3.60;;;;;;;21.31;50.76;99576.72;5064531;28;20035;-78
2023/05/04 08:10:26;;;;;;;6.15;3.50;;;;;;;21.32;50.84;99583.75;5063020;28;20097;-78
2023/05/04 08:12:51;;;;;;;7.15;3.20;;;;;;;21.32;50.92;99581.09;5061525;28;20029;-78
2023/05/04 08:15:17;;;;;;;7.93;3.33;;;;;;;21.32;51.13;99584.56;5065008;28;20114;-74
2023/05/04 08:17:43;;;;;;;11.45;4.30;;;;;;;21.34;51.06;99587.16;5062712;28;20051;-74
2023/05/04 08:20:09;;;;;;;8.52;3.45;;;;;;;21.33;51.23;99585.44;5063458;28;20070;-77
2023/05/04 08:22:35;;;;;;;9.80;4.10;;;;;;;21.35;51.05;99583.53;5063821;28;20489;-78
2023/05/04 08:25:01;;;;;;;8.38;4.05;;;;;;;21.36;51.20;99579.94;5065515;28;20078;-78
2023/05/04 08:27:26;;;;;;;10.27;3.88;;;;;;;21.39;51.23;99585.06;5062744;28;20025;-77
2023/05/04 08:29:52;;;;;;;10.00;4.22;;;;;;;21.39;51.09;99584.19;5064834;28;20111;-78
2023/05/04 08:32:17;;;;;;;9.15;4.40;;;;;;;21.41;51.21;99585.81;5062154;28;20021;-76
2023/05/04 08:34:42;;;;;;;12.20;3.92;;;;;;;21.43;51.20;99575.13;5062280;28;20662;-77
2023/05/04 08:37:08;;;;;;;9.75;3.90;;;;;;;21.43;50.99;99581.28;5064297;28;20388;-78
2023/05/04 08:39:33;;;;;;;8.70;3.90;;;;;;;21.46;50.99;99585.56;5072588;28;20024;-78
2023/05/04 08:41:59;;;;;;;8.68;4.07;;;;;;;21.44;51.40;99583.00;5054769;28;20062;-78
2023/05/04 08:44:24;;;;;;;10.77;4.20;;;;;;;21.45;51.56;99586.47;5073040;28;20035;-78
2023/05/04 08:46:52;;;;;;;8.13;4.15;;;;;;;21.45;51.48;99587.34;5073030;28;20047;-78
2023/05/04 08:49:21;;;;;;;8.43;4.07;;;;;;;21.45;51.46;99584.69;5072470;28;20146;-79
2023/05/04 08:51:49;;;;;;;10.18;4.50;;;;;;;21.45;51.36;99584.69;5072771;28;20028;-79
2023/05/04 08:54:15;;;;;;;8.23;3.78;;;;;;;21.48;51.30;99582.78;5073091;28;20028;-79
2023/05/04 08:56:41;;;;;;;9.88;4.35;;;;;;;21.49;51.36;99585.34;5054666;28;20031;-78
2023/05/04 08:59:11;;;;;;;11.05;4.45;;;;;;;21.50;51.20;99586.22;5072851;28;20042;-79
2023/05/04 09:01:37;;;;;;;11.13;4.05;;;;;;;21.51;51.39;99583.47;5072709;28;20024;-78
2023/05/04 09:04:03;;;;;;;7.93;3.83;;;;;;;21.52;51.25;99579.00;5072429;28;20572;-78
2023/05/04 09:06:30;;;;;;;9.82;4.32;;;;;;;21.54;51.27;99582.41;5072481;28;20079;-78
2023/05/04 09:08:56;;;;;;;9.13;4.15;;;;;;;21.54;51.41;99587.72;5072573;28;20074;-78
2023/05/04 09:11:22;;;;;;;10.43;4.28;;;;;;;21.58;51.35;99594.56;5072556;28;20016;-79
2023/05/04 09:13:47;;;;;;;11.35;4.43;;;;;;;21.56;51.58;99586.69;5072501;28;20024;-78
2023/05/04 09:16:14;;;;;;;10.07;4.15;;;;;;;21.60;51.37;99592.69;5072623;28;20028;-78
2023/05/04 09:18:42;;;;;;;9.52;4.40;;;;;;;21.59;51.36;99590.94;5072222;28;20024;-78
2023/05/04 09:21:10;;;;;;;10.68;4.70;;;;;;;21.60;51.46;99598.00;5071678;28;20124;-78
2023/05/04 09:23:45;;;;;;;9.52;4.53;;;;;;;21.61;51.59;99605.00;5072279;28;20102;-79
2023/05/04 09:26:11;;;;;;;8.57;4.50;;;;;;;21.63;51.30;99597.78;5072298;28;20051;-78
2023/05/04 09:28:38;;;;;;;10.48;4.50;;;;;;;21.64;51.37;99604.81;5072482;28;20559;-78
2023/05/04 09:31:05;;;;;;;8.15;4.10;;;;;;;21.65;51.41;99609.16;5072382;28;20403;-78
2023/05/04 09:33:30;;;;;;;8.18;3.90;;;;;;;21.65;51.48;99611.81;5072047;28;20104;-78
2023/05/04 09:35:58;;;;;;;8.43;4.03;;;;;;;21.68;51.34;99603.66;5072173;28;20102;-78
2023/05/04 09:38:28;;;;;;;10.32;3.88;;;;;;;21.69;51.43;99608.03;5072023;28;20161;-78
2023/05/04 09:40:54;;;;;;;6.93;3.50;;;;;;;21.70;51.30;99607.09;5072156;28;20031;-78
2023/05/04 09:43:19;;;;;;;9.27;3.80;;;;;;;21.70;51.30;99603.63;5072023;28;20028;-70
2023/05/04 09:45:46;;;;;;;8.52;3.38;;;;;;;21.73;51.21;99601.63;5071578;28;20035;-68
2023/05/04 09:48:15;;;;;;;7.80;4.38;;;;;;;21.73;51.34;99604.28;5071391;28;20504;-69
2023/05/04 09:50:56;;;;;;;8.30;3.95;;;;;;;21.76;51.23;99607.69;5070215;28;20013;-67
2023/05/04 09:53:23;;;;;;;8.57;4.00;;;;;;;21.77;51.40;99604.94;5070992;28;20028;-67
2023/05/04 09:55:58;;;;;;;7.95;3.88;;;;;;;21.79;51.46;99599.53;5071532;28;20016;-68
2023/05/04 09:58:25;;;;;;;8.23;4.05;;;;;;;21.80;51.46;99604.72;5071459;28;20412;-67
2023/05/04 10:00:52;;;;;;;7.10;3.85;;;;;;;21.81;51.42;99609.13;5071648;28;20031;-66
2023/05/04 10:03:21;;;;;;;10.32;3.88;;;;;;;21.84;51.46;99611.56;5071238;28;20020;-68
2023/05/04 10:05:47;;;;;;;8.25;3.75;;;;;;;21.84;51.49;99606.25;5071316;28;20024;-69
2023/05/04 10:08:14;;;;;;;8.25;3.75;;;;;;;21.85;51.50;99600.00;5053254;28;20046;-68
2023/05/04 10:10:42;;;;;;;8.52;4.05;;;;;;;21.88;51.39;99611.38;5069578;28;20017;-69
2023/05/04 10:13:07;;;;;;;7.47;3.72;;;;;;;21.89;51.51;99599.81;5070984;28;20036;-66
2023/05/04 10:15:33;;;;;;;8.68;3.60;;;;;;;21.90;51.58;99605.03;5071278;28;20082;-67
2023/05/04 10:18:22;;;;;;;7.18;3.60;;;;;;;21.92;51.43;99600.47;5070740;28;20021;-67
2023/05/04 10:21:00;;;;;;;7.95;3.92;;;;;;;21.93;51.58;99594.19;5071203;28;20075;-69
2023/05/04 10:23:46;;;;;;;7.60;3.67;;;;;;;21.95;51.61;99602.94;5071204;28;20029;-69
2023/05/04 10:26:40;;;;;;;8.05;4.00;;;;;;;21.96;51.58;99604.66;5071146;28;20032;-64
2023/05/04 10:29:20;;;;;;;7.20;3.40;;;;;;;21.99;51.72;99604.44;5071435;28;20610;-68
2023/05/04 10:31:46;;;;;;;6.65;3.30;;;;;;;22.00;51.59;99602.66;5073310;28;20052;-67
2023/05/04 10:34:31;;;;;;;8.88;3.72;;;;;;;22.02;51.84;99602.56;5074903;28;20101;-66
2023/05/04 10:36:58;;;;;;;7.50;3.42;;;;;;;22.04;51.74;99608.63;5057060;28;20488;-68
2023/05/04 10:39:30;;;;;;;8.50;3.75;;;;;;;22.06;51.79;99604.03;5075003;28;20166;-67
2023/05/04 10:42:06;;;;;;;7.68;3.80;;;;;;;22.08;51.88;99607.47;5075001;28;20392;-67
2023/05/04 10:44:47;;;;;;;8.10;4.57;;;;;;;22.10;51.64;99605.56;5074886;28;20032;-66
2023/05/04 10:47:13;;;;;;;10.50;3.60;;;;;;;22.11;51.72;99593.97;5075090;28;20037;-68
2023/05/04 10:49:38;;;;;;;6.53;3.65;;;;;;;22.13;51.70;99594.75;5074899;28;20031;-68
2023/05/04 10:52:08;;;;;;;8.20;3.60;;;;;;;22.14;51.64;99596.47;5074838;28;20025;-68
2023/05/04 10:54:35;;;;;;;7.53;3.38;;;;;;;22.16;51.65;99594.53;5074952;28;20498;-68
2023/05/04 10:57:12;;;;;;;7.13;3.70;;;;;;;22.17;51.93;99596.25;5074790;28;20027;-68
2023/05/04 10:59:38;;;;;;;8.00;3.70;;;;;;;22.18;51.81;99592.63;5074288;28;20017;-68
2023/05/04 11:02:06;;;;;;;9.25;3.78;;;;;;;22.20;51.88;99596.06;5074498;28;20021;-66
2023/05/04 11:04:33;;;;;;;8.25;3.58;;;;;;;22.22;51.90;99594.16;5074796;28;20016;-68
2023/05/04 11:07:00;;;;;;;7.30;3.50;;;;;;;22.22;51.78;99591.50;5074284;28;20028;-68
2023/05/04 11:09:27;;;;;;;7.65;3.80;;;;;;;22.24;51.79;99586.91;5074214;28;20020;-67
2023/05/04 11:11:54;;;;;;;6.45;3.50;;;;;;;22.26;51.80;99586.81;5074418;28;20027;-68
2023/05/04 11:14:27;;;;;;;7.82;4.13;;;;;;;22.27;51.75;99575.25;5073909;28;20542;-68
2023/05/04 11:17:14;;;;;;;7.47;3.80;;;;;;;22.29;51.83;99567.16;5056239;28;20036;-67
2023/05/04 11:19:50;;;;;;;8.60;3.90;;;;;;;22.31;51.86;99571.44;5074276;28;20124;-67
2023/05/04 11:22:16;;;;;;;8.13;3.75;;;;;;;22.32;51.85;99567.81;5074637;28;20033;-68
2023/05/04 11:24:43;;;;;;;9.30;3.88;;;;;;;22.35;51.87;99561.44;5074099;28;20037;-67
2023/05/04 11:27:24;;;;;;;8.80;3.85;;;;;;;22.36;52.07;99563.16;5074177;28;20388;-69
2023/05/04 11:29:58;;;;;;;9.02;3.65;;;;;;;22.38;52.20;99558.63;5074136;28;20071;-69
2023/05/04 11:32:48;;;;;;;7.50;3.80;;;;;;;22.39;52.23;99563.81;5074275;28;20573;-68